Silver Cloud — C6MQ5 — position and weather

sailwx.info

Track history (hours):
 
Tides and Currents Weather Stations Pressure Air Temp Water Temp Dewpoint Dewpoint Depression Visibility Wind Speed Wind Dir Waves Ship Positions

Silver Cloud

Operator: V Ships Leisure SAM

Last reported at 2017-May-29 20:30 UTC. Time now 2017-May-29 20:41 UTC.
Position N 39°11' W 009°43'.

Length 156 m; draft 5.7 m.

Type: Passenger vessel. MMSI: 309027000.

Date/timePositionNaut miles runAvg speedWind from/ knotsBaromVisibWave heightAir tempDewpointWater temp
2017-May-29 20:30N 39°11' W 009°43'713.5
2017-May-29 20:00N 39°04' W 009°42'713.4
2017-May-29 19:30N 38°58' W 009°42'713.8
2017-May-29 19:00N 38°51' W 009°42'713.8
2017-May-29 18:30N 38°44' W 009°42'612.1
2017-May-29 18:00N 38°39' W 009°38'714.6
2017-May-29 17:30N 38°38' W 009°29'612.7
2017-May-29 17:00N 38°38' W 009°21'612.1
2017-May-29 16:29N 38°41' W 009°14'510.5
2017-May-29 16:00N 38°43' W 009°07'0 0.1
2017-May-29 15:19N 38°43' W 009°07'0 0.0
2017-May-29 14:49N 38°43' W 009°07'0 0.0
2017-May-29 14:24N 38°43' W 009°07'0 0.0
2017-May-29 13:30N 38°43' W 009°07'0 0.0
2017-May-29 13:00N 38°43' W 009°07'0 0.0
2017-May-29 12:12N 38°43' W 009°07'0 0.0
2017-May-29 11:57N 38°43' W 009°07'0 0.0
2017-May-29 11:30N 38°43' W 009°07'0 0.0
2017-May-29 11:00N 38°43' W 009°07'0 0.0
2017-May-29 10:30N 38°43' W 009°07'0 0.0
2017-May-29 09:49N 38°43' W 009°07'0 0.0
2017-May-29 09:18N 38°43' W 009°07'0 0.0
2017-May-29 09:00N 38°43' W 009°07'0 0.0
2017-May-29 08:30N 38°43' W 009°07'0 0.0
2017-May-29 08:00N 38°43' W 009°07'0 0.0
2017-May-29 07:30N 38°43' W 009°07'0 0.0
2017-May-29 07:00N 38°43' W 009°07'0 0.0
2017-May-29 06:30N 38°43' W 009°07'0 0.0
2017-May-29 06:00N 38°43' W 009°07'1 1.1
2017-May-29 05:31N 38°42' W 009°08'4 8.0
2017-May-29 05:01N 38°41' W 009°13'511.0
2017-May-29 04:31N 38°39' W 009°19'612.0
2017-May-29 04:00N 38°34' W 009°23'612.6
2017-May-29 03:30N 38°28' W 009°23'713.6
2017-May-29 03:00N 38°21' W 009°23'713.3
2017-May-29 02:30N 38°14' W 009°22'713.5
2017-May-29 02:00N 38°08' W 009°22'713.4
2017-May-29 01:30N 38°01' W 009°22'713.5
2017-May-29 01:00N 37°54' W 009°22'713.2
2017-May-29 00:30N 37°48' W 009°22'713.5
2017-May-29 00:00N 37°41' W 009°22'6111.6
2017-May-28 18:47N 36°45' W 008°52'814.0
2017-May-28 18:12N 36°51' W 008°44'314.1
2017-May-28 18:00N 36°53' W 008°42'714.2
2017-May-28 17:30N 36°59' W 008°37'714.4
2017-May-28 17:01N 37°05' W 008°32'3 5.4
2017-May-28 16:28N 37°08' W 008°32'0 0.0
2017-May-28 15:58N 37°08' W 008°32'0 0.0
2017-May-28 15:28N 37°08' W 008°32'0 0.0
2017-May-28 14:58N 37°08' W 008°32'0 0.0
2017-May-28 13:58N 37°08' W 008°32'0 0.0
2017-May-28 13:28N 37°08' W 008°32'0 0.0
2017-May-28 12:58N 37°08' W 008°32'0 0.0
2017-May-28 12:28N 37°08' W 008°32'0 0.0
2017-May-28 11:58N 37°08' W 008°32'0 0.0
2017-May-28 11:28N 37°08' W 008°32'0 0.0
2017-May-28 10:58N 37°08' W 008°32'0 0.0
2017-May-28 10:28N 37°08' W 008°32'0 0.0
2017-May-28 09:58N 37°08' W 008°32'0 0.0
2017-May-28 09:28N 37°08' W 008°32'0 0.0
2017-May-28 08:58N 37°08' W 008°32'0 0.0
2017-May-28 08:28N 37°08' W 008°32'0 0.0
2017-May-28 07:58N 37°08' W 008°32'0 0.0
2017-May-28 07:28N 37°08' W 008°32'0 0.0
2017-May-28 06:58N 37°08' W 008°32'0 0.2
2017-May-28 06:30N 37°08' W 008°32'2 4.7
2017-May-28 06:00N 37°05' W 008°32'611.3
2017-May-28 05:30N 36°60' W 008°30'612.5
2017-May-28 05:00N 36°58' W 008°23'613.0
2017-May-28 04:30N 36°56' W 008°15'612.9
2017-May-28 04:00N 36°55' W 008°07'712.9
2017-May-28 03:30N 36°53' W 007°59'127 4.4
2017-May-26 22:26N 35°58' W 005°36'610.1
2017-May-26 21:53N 35°60' W 005°30'410.2
2017-May-26 21:30N 36°01' W 005°25'714.2
2017-May-26 21:00N 36°08' W 005°23'1 1.9
2017-May-26 20:15N 36°09' W 005°22'0 0.0
2017-May-26 05:27N 36°09' W 005°22'0 0.0
2017-May-26 05:01N 36°09' W 005°22'3 3.7
2017-May-26 04:15N 36°06' W 005°22'2 7.0
2017-May-26 04:01N 36°06' W 005°20'5 9.5
2017-May-26 03:31N 36°07' W 005°14'5 9.4
2017-May-26 03:00N 36°09' W 005°09'216 4.7
2017-May-24 05:03N 37°32' W 000°60'0 9.1
2017-May-24 05:00N 37°32' W 000°60'612.6
2017-May-24 04:30N 37°30' W 000°52'611.8
2017-May-24 04:00N 37°31' W 000°45'612.0
2017-May-24 03:30N 37°32' W 000°38'612.5
2017-May-24 03:00N 37°37' W 000°32'612.7
2017-May-24 02:30N 37°42' W 000°27'2112.4
2017-May-24 00:49N 37°59' W 000°12'1412.1
2017-May-23 23:37N 38°11' W 000°03'612.0
2017-May-23 23:07N 38°16' E 000°01'212.2
2017-May-23 22:56N 38°18' E 000°03'512.4
2017-May-23 22:30N 38°23' E 000°07'1612.2
2017-May-23 21:12N 38°36' E 000°18'5811.3
2017-May-23 16:03N 39°27' W 000°19'0 7.3
2017-May-23 16:01N 39°27' W 000°19'1 0.1
2017-May-23 08:09N 39°27' W 000°19'0 0.0
2017-May-23 06:12N 39°27' W 000°19'0 0.0
2017-May-23 05:45N 39°27' W 000°19'1 2.0
2017-May-23 05:30N 39°27' W 000°19'5 8.4
2017-May-23 04:57N 39°26' W 000°13'4412.5
2017-May-23 01:27N 39°57' E 000°27'1012.4
2017-May-23 00:40N 40°04' E 000°36'312.5
2017-May-23 00:25N 40°06' E 000°39'512.5
2017-May-23 00:00N 40°10' E 000°44'612.3
2017-May-22 23:29N 40°14' E 000°51'612.3
2017-May-22 23:00N 40°18' E 000°56'612.4
2017-May-22 22:30N 40°22' E 001°02'612.5
2017-May-22 22:00N 40°26' E 001°09'612.6
2017-May-22 21:30N 40°30' E 001°15'712.5
2017-May-22 20:59N 40°34' E 001°21'712.6
2017-May-22 20:26N 40°39' E 001°28'512.6
2017-May-22 20:00N 40°43' E 001°33'612.5
2017-May-22 19:29N 40°47' E 001°39'612.6
2017-May-22 19:00N 40°52' E 001°44'612.6
2017-May-22 18:30N 40°57' E 001°50'612.6
2017-May-22 18:00N 41°01' E 001°56'713.2
2017-May-22 17:30N 41°06' E 002°02'612.9
2017-May-22 17:00N 41°11' E 002°07'712.8
2017-May-22 16:26N 41°17' E 002°13'511.3
2017-May-22 16:01N 41°21' E 002°11'1 1.7
2017-May-22 15:25N 41°22' E 002°11'0 0.0
2017-May-22 14:55N 41°22' E 002°11'0 0.0
2017-May-22 11:49N 41°22' E 002°11'0 0.0
2017-May-22 09:07N 41°22' E 002°11'0 0.0
2017-May-22 08:49N 41°22' E 002°11'0 0.0
2017-May-22 08:25N 41°22' E 002°11'0 0.0
2017-May-22 07:55N 41°22' E 002°11'0 0.0
2017-May-22 07:19N 41°22' E 002°11'0 0.0
2017-May-22 06:49N 41°22' E 002°11'0 0.0
2017-May-22 06:25N 41°22' E 002°11'0 0.0
2017-May-22 05:43N 41°22' E 002°11'0 0.0
2017-May-22 05:25N 41°22' E 002°11'3 4.9
2017-May-22 04:50N 41°20' E 002°14'814.9
2017-May-22 04:20N 41°23' E 002°23'514.9
2017-May-22 04:00N 41°26' E 002°28'814.4
2017-May-22 03:25N 41°29' E 002°39'614.3
2017-May-22 02:59N 41°33' E 002°45'714.2
2017-May-22 02:30N 41°36' E 002°53'714.3
2017-May-22 02:00N 41°40' E 003°02'714.3
2017-May-22 01:30N 41°44' E 003°09'714.2
2017-May-22 00:59N 41°49' E 003°16'714.2
2017-May-22 00:30N 41°54' E 003°22'814.0
2017-May-21 23:55N 41°59' E 003°31'614.3
2017-May-21 23:28N 42°04' E 003°38'714.3
2017-May-21 22:57N 42°09' E 003°45'814.3
2017-May-21 22:23N 42°14' E 003°53'714.4
2017-May-21 21:54N 42°19' E 003°60'1814.3
2017-May-21 20:37N 42°31' E 004°18'214.2
2017-May-21 20:28N 42°33' E 004°20'814.2
2017-May-21 19:55N 42°38' E 004°28'614.4
2017-May-21 19:30N 42°42' E 004°33'914.6
2017-May-21 18:53N 42°48' E 004°43'614.9
2017-May-21 18:27N 42°53' E 004°49'714.8
2017-May-21 18:01N 42°57' E 004°56'1014.7
2017-May-21 17:20N 43°04' E 005°06'514.6
2017-May-21 17:00N 43°07' E 005°10'714.4
2017-May-21 16:30N 43°13' E 005°17'611.8
2017-May-21 16:00N 43°18' E 005°21'1 0.2
2017-May-21 12:33N 43°18' E 005°22'0 0.0
2017-May-21 05:42N 43°18' E 005°22'0 0.2
2017-May-21 05:29N 43°18' E 005°22'3 6.7
2017-May-21 05:00N 43°16' E 005°18'711.3
2017-May-21 04:23N 43°09' E 005°19'64 9.8
2017-May-20 21:50N 43°12' E 006°47'612.3
2017-May-20 21:21N 43°17' E 006°46'6 2.8
2017-May-20 19:19N 43°17' E 006°38'0 0.0
2017-May-20 18:55N 43°17' E 006°38'0 0.0
2017-May-20 18:10N 43°17' E 006°38'4 0.4
2017-May-20 09:05N 43°18' E 006°43'112.3
2017-May-20 08:59N 43°18' E 006°44'1112.7
2017-May-20 08:09N 43°21' E 006°58'212.9
2017-May-20 08:00N 43°22' E 007°00'612.8
2017-May-20 07:30N 43°26' E 007°08'612.7
2017-May-20 07:00N 43°30' E 007°14'612.9
2017-May-20 06:30N 43°35' E 007°20'713.4
2017-May-20 06:00N 43°41' E 007°25'  
Track history (hours):
 
Tides and Currents Weather Stations Pressure Air Temp Water Temp Dewpoint Dewpoint Depression Visibility Wind Speed Wind Dir Waves Ship Positions

Silver Cloud

Operator: V Ships Leisure SAM

Last reported at 2017-May-29 20:30 UTC. Time now 2017-May-29 20:41 UTC.
Position N 39°11' W 009°43'.

Length 156 m; draft 5.7 m.

Type: Passenger vessel. MMSI: 309027000.

Date/timePositionNaut miles runAvg speedWind from/ knotsBaromVisibWave heightAir tempDewpointWater temp
2017-May-29 20:30N 39°11' W 009°43'713.5
2017-May-29 20:00N 39°04' W 009°42'713.4
2017-May-29 19:30N 38°58' W 009°42'713.8
2017-May-29 19:00N 38°51' W 009°42'713.8
2017-May-29 18:30N 38°44' W 009°42'612.1
2017-May-29 18:00N 38°39' W 009°38'714.6
2017-May-29 17:30N 38°38' W 009°29'612.7
2017-May-29 17:00N 38°38' W 009°21'612.1
2017-May-29 16:29N 38°41' W 009°14'510.5
2017-May-29 16:00N 38°43' W 009°07'0 0.1
2017-May-29 15:19N 38°43' W 009°07'0 0.0
2017-May-29 14:49N 38°43' W 009°07'0 0.0
2017-May-29 14:24N 38°43' W 009°07'0 0.0
2017-May-29 13:30N 38°43' W 009°07'0 0.0
2017-May-29 13:00N 38°43' W 009°07'0 0.0
2017-May-29 12:12N 38°43' W 009°07'0 0.0
2017-May-29 11:57N 38°43' W 009°07'0 0.0
2017-May-29 11:30N 38°43' W 009°07'0 0.0
2017-May-29 11:00N 38°43' W 009°07'0 0.0
2017-May-29 10:30N 38°43' W 009°07'0 0.0
2017-May-29 09:49N 38°43' W 009°07'0 0.0
2017-May-29 09:18N 38°43' W 009°07'0 0.0
2017-May-29 09:00N 38°43' W 009°07'0 0.0
2017-May-29 08:30N 38°43' W 009°07'0 0.0
2017-May-29 08:00N 38°43' W 009°07'0 0.0
2017-May-29 07:30N 38°43' W 009°07'0 0.0
2017-May-29 07:00N 38°43' W 009°07'0 0.0
2017-May-29 06:30N 38°43' W 009°07'0 0.0
2017-May-29 06:00N 38°43' W 009°07'1 1.1
2017-May-29 05:31N 38°42' W 009°08'4 8.0
2017-May-29 05:01N 38°41' W 009°13'511.0
2017-May-29 04:31N 38°39' W 009°19'612.0
2017-May-29 04:00N 38°34' W 009°23'612.6
2017-May-29 03:30N 38°28' W 009°23'713.6
2017-May-29 03:00N 38°21' W 009°23'713.3
2017-May-29 02:30N 38°14' W 009°22'713.5
2017-May-29 02:00N 38°08' W 009°22'713.4
2017-May-29 01:30N 38°01' W 009°22'713.5
2017-May-29 01:00N 37°54' W 009°22'713.2
2017-May-29 00:30N 37°48' W 009°22'713.5
2017-May-29 00:00N 37°41' W 009°22'6111.6
2017-May-28 18:47N 36°45' W 008°52'814.0
2017-May-28 18:12N 36°51' W 008°44'314.1
2017-May-28 18:00N 36°53' W 008°42'714.2
2017-May-28 17:30N 36°59' W 008°37'714.4
2017-May-28 17:01N 37°05' W 008°32'3 5.4
2017-May-28 16:28N 37°08' W 008°32'0 0.0
2017-May-28 15:58N 37°08' W 008°32'0 0.0
2017-May-28 15:28N 37°08' W 008°32'0 0.0
2017-May-28 14:58N 37°08' W 008°32'0 0.0
2017-May-28 13:58N 37°08' W 008°32'0 0.0
2017-May-28 13:28N 37°08' W 008°32'0 0.0
2017-May-28 12:58N 37°08' W 008°32'0 0.0
2017-May-28 12:28N 37°08' W 008°32'0 0.0
2017-May-28 11:58N 37°08' W 008°32'0 0.0
2017-May-28 11:28N 37°08' W 008°32'0 0.0
2017-May-28 10:58N 37°08' W 008°32'0 0.0
2017-May-28 10:28N 37°08' W 008°32'0 0.0
2017-May-28 09:58N 37°08' W 008°32'0 0.0
2017-May-28 09:28N 37°08' W 008°32'0 0.0
2017-May-28 08:58N 37°08' W 008°32'0 0.0
2017-May-28 08:28N 37°08' W 008°32'0 0.0
2017-May-28 07:58N 37°08' W 008°32'0 0.0
2017-May-28 07:28N 37°08' W 008°32'0 0.0
2017-May-28 06:58N 37°08' W 008°32'0 0.2
2017-May-28 06:30N 37°08' W 008°32'2 4.7
2017-May-28 06:00N 37°05' W 008°32'611.3
2017-May-28 05:30N 36°60' W 008°30'612.5
2017-May-28 05:00N 36°58' W 008°23'613.0
2017-May-28 04:30N 36°56' W 008°15'612.9
2017-May-28 04:00N 36°55' W 008°07'712.9
2017-May-28 03:30N 36°53' W 007°59'127 4.4
2017-May-26 22:26N 35°58' W 005°36'610.1
2017-May-26 21:53N 35°60' W 005°30'410.2
2017-May-26 21:30N 36°01' W 005°25'714.2
2017-May-26 21:00N 36°08' W 005°23'1 1.9
2017-May-26 20:15N 36°09' W 005°22'0 0.0
2017-May-26 05:27N 36°09' W 005°22'0 0.0
2017-May-26 05:01N 36°09' W 005°22'3 3.7
2017-May-26 04:15N 36°06' W 005°22'2 7.0
2017-May-26 04:01N 36°06' W 005°20'5 9.5
2017-May-26 03:31N 36°07' W 005°14'5 9.4
2017-May-26 03:00N 36°09' W 005°09'216 4.7
2017-May-24 05:03N 37°32' W 000°60'0 9.1
2017-May-24 05:00N 37°32' W 000°60'612.6
2017-May-24 04:30N 37°30' W 000°52'611.8
2017-May-24 04:00N 37°31' W 000°45'612.0
2017-May-24 03:30N 37°32' W 000°38'612.5
2017-May-24 03:00N 37°37' W 000°32'612.7
2017-May-24 02:30N 37°42' W 000°27'2112.4
2017-May-24 00:49N 37°59' W 000°12'1412.1
2017-May-23 23:37N 38°11' W 000°03'612.0
2017-May-23 23:07N 38°16' E 000°01'212.2
2017-May-23 22:56N 38°18' E 000°03'512.4
2017-May-23 22:30N 38°23' E 000°07'1612.2
2017-May-23 21:12N 38°36' E 000°18'5811.3
2017-May-23 16:03N 39°27' W 000°19'0 7.3
2017-May-23 16:01N 39°27' W 000°19'1 0.1
2017-May-23 08:09N 39°27' W 000°19'0 0.0
2017-May-23 06:12N 39°27' W 000°19'0 0.0
2017-May-23 05:45N 39°27' W 000°19'1 2.0
2017-May-23 05:30N 39°27' W 000°19'5 8.4
2017-May-23 04:57N 39°26' W 000°13'4412.5
2017-May-23 01:27N 39°57' E 000°27'1012.4
2017-May-23 00:40N 40°04' E 000°36'312.5
2017-May-23 00:25N 40°06' E 000°39'512.5
2017-May-23 00:00N 40°10' E 000°44'612.3
2017-May-22 23:29N 40°14' E 000°51'612.3
2017-May-22 23:00N 40°18' E 000°56'612.4
2017-May-22 22:30N 40°22' E 001°02'612.5
2017-May-22 22:00N 40°26' E 001°09'612.6
2017-May-22 21:30N 40°30' E 001°15'712.5
2017-May-22 20:59N 40°34' E 001°21'712.6
2017-May-22 20:26N 40°39' E 001°28'512.6
2017-May-22 20:00N 40°43' E 001°33'612.5
2017-May-22 19:29N 40°47' E 001°39'612.6
2017-May-22 19:00N 40°52' E 001°44'612.6
2017-May-22 18:30N 40°57' E 001°50'612.6
2017-May-22 18:00N 41°01' E 001°56'713.2
2017-May-22 17:30N 41°06' E 002°02'612.9
2017-May-22 17:00N 41°11' E 002°07'712.8
2017-May-22 16:26N 41°17' E 002°13'511.3
2017-May-22 16:01N 41°21' E 002°11'1 1.7
2017-May-22 15:25N 41°22' E 002°11'0 0.0
2017-May-22 14:55N 41°22' E 002°11'0 0.0
2017-May-22 11:49N 41°22' E 002°11'0 0.0
2017-May-22 09:07N 41°22' E 002°11'0 0.0
2017-May-22 08:49N 41°22' E 002°11'0 0.0
2017-May-22 08:25N 41°22' E 002°11'0 0.0
2017-May-22 07:55N 41°22' E 002°11'0 0.0
2017-May-22 07:19N 41°22' E 002°11'0 0.0
2017-May-22 06:49N 41°22' E 002°11'0 0.0
2017-May-22 06:25N 41°22' E 002°11'0 0.0
2017-May-22 05:43N 41°22' E 002°11'0 0.0
2017-May-22 05:25N 41°22' E 002°11'3 4.9
2017-May-22 04:50N 41°20' E 002°14'814.9
2017-May-22 04:20N 41°23' E 002°23'514.9
2017-May-22 04:00N 41°26' E 002°28'814.4
2017-May-22 03:25N 41°29' E 002°39'614.3
2017-May-22 02:59N 41°33' E 002°45'714.2
2017-May-22 02:30N 41°36' E 002°53'714.3
2017-May-22 02:00N 41°40' E 003°02'714.3
2017-May-22 01:30N 41°44' E 003°09'714.2
2017-May-22 00:59N 41°49' E 003°16'714.2
2017-May-22 00:30N 41°54' E 003°22'814.0
2017-May-21 23:55N 41°59' E 003°31'614.3
2017-May-21 23:28N 42°04' E 003°38'714.3
2017-May-21 22:57N 42°09' E 003°45'814.3
2017-May-21 22:23N 42°14' E 003°53'714.4
2017-May-21 21:54N 42°19' E 003°60'1814.3
2017-May-21 20:37N 42°31' E 004°18'214.2
2017-May-21 20:28N 42°33' E 004°20'814.2
2017-May-21 19:55N 42°38' E 004°28'614.4
2017-May-21 19:30N 42°42' E 004°33'914.6
2017-May-21 18:53N 42°48' E 004°43'614.9
2017-May-21 18:27N 42°53' E 004°49'714.8
2017-May-21 18:01N 42°57' E 004°56'1014.7
2017-May-21 17:20N 43°04' E 005°06'514.6
2017-May-21 17:00N 43°07' E 005°10'714.4
2017-May-21 16:30N 43°13' E 005°17'611.8
2017-May-21 16:00N 43°18' E 005°21'1 0.2
2017-May-21 12:33N 43°18' E 005°22'0 0.0
2017-May-21 05:42N 43°18' E 005°22'0 0.2
2017-May-21 05:29N 43°18' E 005°22'3 6.7
2017-May-21 05:00N 43°16' E 005°18'711.3
2017-May-21 04:23N 43°09' E 005°19'64 9.8
2017-May-20 21:50N 43°12' E 006°47'612.3
2017-May-20 21:21N 43°17' E 006°46'6 2.8
2017-May-20 19:19N 43°17' E 006°38'0 0.0
2017-May-20 18:55N 43°17' E 006°38'0 0.0
2017-May-20 18:10N 43°17' E 006°38'4 0.4
2017-May-20 09:05N 43°18' E 006°43'112.3
2017-May-20 08:59N 43°18' E 006°44'1112.7
2017-May-20 08:09N 43°21' E 006°58'212.9
2017-May-20 08:00N 43°22' E 007°00'612.8
2017-May-20 07:30N 43°26' E 007°08'612.7
2017-May-20 07:00N 43°30' E 007°14'612.9
2017-May-20 06:30N 43°35' E 007°20'713.4
2017-May-20 06:00N 43°41' E 007°25'  

Dump ship's entire track history